Time;durP1;ratioP1;P1;durP2;ratioP2;P2;SDS_P1;SDS_P2;PMS_P1;PMS_P2;Temp;Humidity;BMP_temperature;BMP_pressure;BME280_temperature;BME280_humidity;BME280_pressure;Samples;Min_cycle;Max_cycle;Signal;HPM_P1;HPM_P2
2023/09/15 00:01:19;;;;;;;0.88;0.80;;;22.30;66.10;;;;;;6292641;28;20016;-69
2023/09/15 00:04:20;;;;;;;1.42;0.95;;;22.30;66.20;;;;;;6291954;28;20079;-69
2023/09/15 00:07:20;;;;;;;0.90;0.80;;;22.30;66.20;;;;;;6293010;28;20012;-68
2023/09/15 00:10:21;;;;;;;2.05;0.98;;;22.30;66.20;;;;;;6292147;28;20505;-69
2023/09/15 00:13:22;;;;;;;1.45;0.90;;;22.30;66.10;;;;;;6290417;28;20071;-69
2023/09/15 00:16:23;;;;;;;1.30;0.90;;;22.30;66.20;;;;;;6277950;28;20387;-69
2023/09/15 00:19:24;;;;;;;1.05;0.80;;;22.20;66.00;;;;;;6292329;28;20419;-69
2023/09/15 00:22:25;;;;;;;0.88;0.80;;;22.30;66.10;;;;;;6292729;28;20024;-69
2023/09/15 00:25:29;;;;;;;1.05;0.90;;;22.30;66.10;;;;;;6282414;28;20049;-68
2023/09/15 00:28:30;;;;;;;1.30;0.85;;;22.30;66.20;;;;;;6290113;28;20093;-69
2023/09/15 00:31:31;;;;;;;1.00;0.90;;;22.30;66.10;;;;;;6292454;28;20491;-69
2023/09/15 00:34:32;;;;;;;1.33;1.00;;;22.30;66.10;;;;;;6288949;28;20032;-69
2023/09/15 00:37:33;;;;;;;1.20;0.77;;;22.30;66.10;;;;;;6287699;28;20538;-68
2023/09/15 00:40:33;;;;;;;0.98;0.88;;;22.30;66.00;;;;;;6287116;28;20036;-69
2023/09/15 00:43:34;;;;;;;0.90;0.80;;;22.30;66.00;;;;;;6296455;28;20032;-68
2023/09/15 00:46:35;;;;;;;1.50;0.98;;;22.30;66.00;;;;;;6280270;28;20040;-69
2023/09/15 00:49:37;;;;;;;1.13;0.98;;;22.30;66.10;;;;;;6296225;28;20095;-69
2023/09/15 00:52:38;;;;;;;1.25;1.00;;;22.30;66.10;;;;;;6296212;28;20017;-69
2023/09/15 00:55:41;;;;;;;1.85;1.00;;;22.30;66.10;;;;;;6287796;28;20481;-69
2023/09/15 00:58:42;;;;;;;1.80;0.98;;;22.30;66.00;;;;;;6292392;28;20107;-69
2023/09/15 01:01:47;;;;;;;0.80;0.80;;;22.30;66.10;;;;;;6296314;28;20034;-69
2023/09/15 01:04:48;;;;;;;1.02;0.85;;;22.30;66.10;;;;;;6294677;28;20044;-69
2023/09/15 01:07:52;;;;;;;1.25;0.90;;;22.30;66.10;;;;;;6279560;28;20120;-68
2023/09/15 01:10:52;;;;;;;1.27;1.00;;;22.30;66.10;;;;;;6289946;28;20634;-69
2023/09/15 01:13:53;;;;;;;1.00;0.77;;;22.30;66.10;;;;;;6292137;28;20020;-69
2023/09/15 01:17:08;;;;;;;2.05;0.88;;;22.20;66.00;;;;;;6295442;28;20115;-69
2023/09/15 01:20:31;;;;;;;0.88;0.80;;;22.30;66.20;;;;;;6289107;28;20040;-69
2023/09/15 01:24:05;;;;;;;1.20;0.82;;;22.30;66.10;;;;;;6283121;28;20020;-69
2023/09/15 01:27:18;;;;;;;1.40;1.00;;;22.20;66.00;;;;;;6295159;28;20491;-68
2023/09/15 01:30:20;;;;;;;1.70;0.73;;;22.30;66.10;;;;;;6295600;28;20017;-68
2023/09/15 01:33:24;;;;;;;0.88;0.70;;;22.20;66.00;;;;;;6295378;28;20429;-68
2023/09/15 01:36:24;;;;;;;0.65;0.63;;;22.30;66.20;;;;;;6294956;28;20103;-69
2023/09/15 01:39:30;;;;;;;1.35;1.00;;;22.30;66.00;;;;;;6294815;28;20028;-69
2023/09/15 01:42:31;;;;;;;0.70;0.70;;;22.30;66.10;;;;;;6295522;28;20021;-69
2023/09/15 01:45:31;;;;;;;1.27;0.95;;;22.30;66.20;;;;;;6294988;28;20119;-69
2023/09/15 01:48:33;;;;;;;0.90;0.80;;;22.30;66.20;;;;;;6294255;28;20036;-69
2023/09/15 01:51:34;;;;;;;1.70;0.80;;;22.30;66.00;;;;;;6291354;28;20025;-68
2023/09/15 01:54:35;;;;;;;0.75;0.70;;;22.30;66.10;;;;;;6288152;28;20032;-69
2023/09/15 01:57:36;;;;;;;1.45;1.10;;;22.30;66.10;;;;;;6294575;28;20028;-69
2023/09/15 02:00:37;;;;;;;1.30;0.88;;;22.30;66.10;;;;;;6294678;28;20025;-69
2023/09/15 02:03:38;;;;;;;1.10;0.95;;;22.20;65.90;;;;;;6293540;28;20024;-69
2023/09/15 02:06:39;;;;;;;0.73;0.73;;;22.30;66.00;;;;;;6294634;28;20040;-69
2023/09/15 02:09:40;;;;;;;1.13;0.90;;;22.30;66.10;;;;;;6293118;28;20032;-69
2023/09/15 02:12:40;;;;;;;1.15;0.80;;;22.30;66.30;;;;;;6294451;28;20021;-69
2023/09/15 02:15:41;;;;;;;1.67;0.90;;;22.20;66.00;;;;;;6294152;28;20025;-69
2023/09/15 02:18:43;;;;;;;1.77;0.93;;;22.30;66.20;;;;;;6294494;28;20039;-69
2023/09/15 02:21:44;;;;;;;1.17;1.00;;;22.30;66.20;;;;;;6294354;28;20013;-69
2023/09/15 02:24:44;;;;;;;1.35;1.10;;;22.30;66.20;;;;;;6292779;28;20559;-69
2023/09/15 02:27:45;;;;;;;1.58;1.05;;;22.30;66.20;;;;;;6292384;28;20021;-69
2023/09/15 02:30:46;;;;;;;1.85;0.85;;;22.30;66.20;;;;;;6286130;28;20066;-69
2023/09/15 02:33:47;;;;;;;0.82;0.80;;;22.30;66.20;;;;;;6280791;28;20040;-69
2023/09/15 02:36:47;;;;;;;1.30;1.00;;;22.30;66.20;;;;;;6290277;28;20502;-69
2023/09/15 02:39:48;;;;;;;2.03;1.20;;;22.20;66.10;;;;;;6293988;28;20047;-69
2023/09/15 02:42:49;;;;;;;1.70;1.20;;;22.30;66.00;;;;;;6293157;28;20025;-69
2023/09/15 02:45:50;;;;;;;1.13;1.02;;;22.20;66.00;;;;;;6292732;28;20103;-69
2023/09/15 02:48:51;;;;;;;1.15;0.85;;;22.20;66.00;;;;;;6292989;28;20742;-69
2023/09/15 02:51:52;;;;;;;1.20;0.90;;;22.30;66.10;;;;;;6293363;28;20044;-69
2023/09/15 02:54:53;;;;;;;0.98;0.88;;;22.30;66.10;;;;;;6293391;28;20033;-69
2023/09/15 02:57:55;;;;;;;1.25;0.85;;;22.20;66.00;;;;;;6293203;28;20025;-69
2023/09/15 03:00:55;;;;;;;1.20;0.90;;;22.30;66.10;;;;;;6291464;28;20425;-69
2023/09/15 03:03:56;;;;;;;1.25;0.95;;;22.30;66.20;;;;;;6293216;28;20096;-68
2023/09/15 03:06:57;;;;;;;1.80;1.27;;;22.20;66.00;;;;;;6292788;28;20099;-69
2023/09/15 03:09:57;;;;;;;1.67;1.00;;;22.30;66.10;;;;;;6293302;28;20134;-69
2023/09/15 03:12:59;;;;;;;1.33;0.88;;;22.30;66.10;;;;;;6284784;28;20506;-68
2023/09/15 03:16:11;;;;;;;1.20;1.00;;;22.30;66.00;;;;;;6291361;28;20388;-69
2023/09/15 03:19:12;;;;;;;2.10;1.13;;;22.20;65.90;;;;;;6292473;28;20137;-69
2023/09/15 03:22:12;;;;;;;1.50;1.17;;;22.20;66.00;;;;;;6291712;28;20024;-69
2023/09/15 03:25:17;;;;;;;2.03;1.20;;;22.30;66.00;;;;;;6292834;28;20035;-69
2023/09/15 03:28:17;;;;;;;1.42;0.80;;;22.20;65.90;;;;;;6277997;28;20032;-69
2023/09/15 03:31:18;;;;;;;1.15;0.95;;;22.30;66.00;;;;;;6292935;28;20074;-68
2023/09/15 03:34:19;;;;;;;1.20;0.80;;;22.20;65.90;;;;;;6292520;28;20067;-69
2023/09/15 03:37:20;;;;;;;1.67;0.95;;;22.20;65.90;;;;;;6290783;28;20045;-69
2023/09/15 03:40:22;;;;;;;1.10;0.73;;;22.20;65.90;;;;;;6287679;28;20029;-69
2023/09/15 03:43:22;;;;;;;0.98;0.77;;;22.30;66.00;;;;;;6292521;28;20017;-69
2023/09/15 03:46:24;;;;;;;1.83;1.02;;;22.20;65.90;;;;;;6289073;28;20028;-68
2023/09/15 03:49:25;;;;;;;1.48;1.00;;;22.20;65.90;;;;;;6286219;28;20025;-69
2023/09/15 03:52:25;;;;;;;1.40;0.88;;;22.20;65.80;;;;;;6292483;28;20502;-69
2023/09/15 03:55:26;;;;;;;1.20;0.90;;;22.20;65.80;;;;;;6291153;28;20085;-68
2023/09/15 03:58:28;;;;;;;1.25;0.85;;;22.30;66.00;;;;;;6289932;28;20111;-69
2023/09/15 04:01:29;;;;;;;1.55;0.95;;;22.20;65.80;;;;;;6288689;28;20081;-69
2023/09/15 04:04:31;;;;;;;1.13;1.00;;;22.30;66.00;;;;;;6291916;28;20017;-68
2023/09/15 04:07:32;;;;;;;1.42;0.90;;;22.20;65.80;;;;;;6292347;28;20548;-69
2023/09/15 04:10:32;;;;;;;1.60;1.08;;;22.20;65.80;;;;;;6292592;28;20070;-69
2023/09/15 04:13:33;;;;;;;1.40;1.05;;;22.20;65.80;;;;;;6297851;28;20020;-69
2023/09/15 04:16:37;;;;;;;1.17;0.90;;;22.20;65.80;;;;;;6297286;28;20035;-69
2023/09/15 04:19:38;;;;;;;1.05;0.90;;;22.20;65.80;;;;;;6296969;28;20028;-68
2023/09/15 04:22:42;;;;;;;1.08;0.70;;;22.20;65.80;;;;;;6296972;28;20364;-69
2023/09/15 04:25:43;;;;;;;0.93;0.70;;;22.20;65.80;;;;;;6297031;28;20178;-69
2023/09/15 04:28:44;;;;;;;1.10;0.90;;;22.20;65.80;;;;;;6296905;28;20025;-69
2023/09/15 04:31:44;;;;;;;1.63;1.10;;;22.20;65.90;;;;;;6296901;28;20028;-69
2023/09/15 04:34:45;;;;;;;1.10;1.00;;;22.20;65.90;;;;;;6296547;28;20032;-69
2023/09/15 04:37:46;;;;;;;1.00;0.80;;;22.20;65.80;;;;;;6296365;28;20045;-68
2023/09/15 04:40:46;;;;;;;1.35;0.85;;;22.20;65.80;;;;;;6296361;28;20499;-69
2023/09/15 04:43:47;;;;;;;2.38;1.00;;;22.20;65.80;;;;;;6296893;28;20050;-69
2023/09/15 04:46:48;;;;;;;1.17;0.70;;;22.20;65.80;;;;;;6296050;28;20029;-69
2023/09/15 04:49:48;;;;;;;1.00;0.80;;;22.20;65.80;;;;;;6295008;28;20040;-69
2023/09/15 04:52:49;;;;;;;1.17;0.90;;;22.20;65.80;;;;;;6295999;28;20046;-69
2023/09/15 04:55:50;;;;;;;1.38;0.90;;;22.20;65.80;;;;;;6294704;28;20024;-69
2023/09/15 04:58:51;;;;;;;1.30;0.93;;;22.20;65.80;;;;;;6295805;28;20035;-69
2023/09/15 05:01:52;;;;;;;1.02;0.93;;;22.20;65.80;;;;;;6286151;28;20567;-69
2023/09/15 05:04:54;;;;;;;1.00;0.82;;;22.20;65.80;;;;;;6289708;28;20029;-68
2023/09/15 05:07:56;;;;;;;0.80;0.70;;;22.20;65.80;;;;;;6293692;28;20108;-68
2023/09/15 05:10:56;;;;;;;1.70;1.10;;;22.20;66.00;;;;;;6293941;28;20430;-68
2023/09/15 05:13:57;;;;;;;4.68;1.10;;;22.10;66.00;;;;;;6295535;28;20024;-68
2023/09/15 05:16:58;;;;;;;2.40;1.25;;;22.10;65.80;;;;;;6299742;28;20063;-68
2023/09/15 05:19:59;;;;;;;4.43;1.95;;;22.00;65.00;;;;;;6294424;28;20039;-68
2023/09/15 05:23:00;;;;;;;3.28;1.98;;;22.10;64.20;;;;;;6302257;28;20033;-68
2023/09/15 05:26:00;;;;;;;3.10;1.80;;;22.00;63.70;;;;;;6295425;28;20512;-68
2023/09/15 05:29:03;;;;;;;10.18;1.40;;;22.00;63.90;;;;;;6317231;28;20441;-68
2023/09/15 05:32:04;;;;;;;15.32;2.20;;;22.10;64.60;;;;;;6307543;28;20029;-69
2023/09/15 05:35:08;;;;;;;4.78;1.95;;;22.10;63.80;;;;;;6304182;28;20032;-67
2023/09/15 05:38:09;;;;;;;4.05;2.15;;;22.20;62.80;;;;;;6303614;28;20047;-67
2023/09/15 05:41:10;;;;;;;4.05;2.40;;;22.30;61.80;;;;;;6292798;28;20024;-67
2023/09/15 05:44:10;;;;;;;7.03;2.60;;;22.30;60.90;;;;;;6292521;28;20049;-67
2023/09/15 05:47:11;;;;;;;11.38;3.47;;;22.30;60.50;;;;;;6296499;28;20025;-66
2023/09/15 05:50:12;;;;;;;4.60;2.47;;;22.30;60.20;;;;;;6297161;28;20036;-64
2023/09/15 05:53:12;;;;;;;4.00;2.28;;;22.20;59.90;;;;;;6295427;28;20487;-63
2023/09/15 05:56:13;;;;;;;5.15;2.33;;;22.20;60.50;;;;;;6295540;28;20028;-63
2023/09/15 05:59:14;;;;;;;3.83;2.20;;;22.20;61.40;;;;;;6294121;28;20040;-63
2023/09/15 06:02:15;;;;;;;6.85;2.60;;;22.20;61.80;;;;;;6279973;28;20232;-63
2023/09/15 06:05:19;;;;;;;7.68;2.05;;;22.20;60.60;;;;;;6297877;28;20024;-64
2023/09/15 06:08:20;;;;;;;7.03;2.00;;;22.20;60.40;;;;;;6297787;28;20099;-63
2023/09/15 06:11:21;;;;;;;6.32;2.67;;;22.20;60.40;;;;;;6296679;28;20024;-63
2023/09/15 06:14:21;;;;;;;5.13;2.47;;;22.20;60.50;;;;;;6297373;28;20028;-63
2023/09/15 06:17:22;;;;;;;5.35;2.60;;;22.20;60.60;;;;;;6297451;28;20036;-65
2023/09/15 06:20:23;;;;;;;9.07;2.47;;;22.20;60.60;;;;;;6297543;28;20154;-65
2023/09/15 06:23:24;;;;;;;5.13;2.47;;;22.20;60.70;;;;;;6297537;28;20076;-63
2023/09/15 06:26:24;;;;;;;4.05;2.08;;;22.20;60.70;;;;;;6297219;28;20486;-63
2023/09/15 06:29:25;;;;;;;7.75;2.40;;;22.20;60.60;;;;;;6297284;28;20031;-64
2023/09/15 06:32:27;;;;;;;5.75;2.30;;;22.20;60.60;;;;;;6297141;28;20094;-63
2023/09/15 06:35:27;;;;;;;4.80;2.25;;;22.10;60.70;;;;;;6297175;28;20161;-63
2023/09/15 06:38:28;;;;;;;4.30;1.95;;;22.20;60.80;;;;;;6296584;28;20518;-63
2023/09/15 06:41:29;;;;;;;5.60;2.33;;;22.10;61.40;;;;;;6295817;28;20107;-63
2023/09/15 06:44:29;;;;;;;4.45;2.10;;;22.20;60.80;;;;;;6296996;28;20032;-63
2023/09/15 06:47:30;;;;;;;3.05;1.83;;;22.20;60.80;;;;;;6296983;28;20023;-63
2023/09/15 06:50:31;;;;;;;5.13;2.10;;;22.20;60.90;;;;;;6296729;28;20024;-63
2023/09/15 06:53:32;;;;;;;5.30;2.35;;;22.20;60.90;;;;;;6297324;28;20069;-62
2023/09/15 06:56:33;;;;;;;4.63;2.05;;;22.20;60.80;;;;;;6296086;28;20050;-63
2023/09/15 06:59:34;;;;;;;5.00;2.28;;;22.20;60.90;;;;;;6295525;28;20024;-63
2023/09/15 07:02:35;;;;;;;2.72;1.88;;;22.20;60.90;;;;;;6296289;28;20021;-63
2023/09/15 07:05:39;;;;;;;4.55;2.20;;;22.20;61.20;;;;;;6296185;28;20063;-63
2023/09/15 07:08:40;;;;;;;4.97;2.08;;;22.20;61.20;;;;;;6296273;28;20154;-63
2023/09/15 07:11:40;;;;;;;7.82;2.60;;;22.20;61.30;;;;;;6296088;28;20035;-63
2023/09/15 07:14:41;;;;;;;4.60;2.10;;;22.20;61.30;;;;;;6296474;28;20056;-63
2023/09/15 07:17:42;;;;;;;2.72;1.60;;;22.20;61.30;;;;;;6295732;28;20103;-63
2023/09/15 07:20:42;;;;;;;4.75;1.88;;;22.20;61.50;;;;;;6294611;28;20032;-63
2023/09/15 07:23:43;;;;;;;2.55;1.80;;;22.20;61.40;;;;;;6295751;28;20383;-63
2023/09/15 07:26:44;;;;;;;3.60;1.90;;;22.20;61.50;;;;;;6294477;28;20050;-63
2023/09/15 07:29:44;;;;;;;2.20;1.58;;;22.20;62.00;;;;;;6295666;28;20391;-63
2023/09/15 07:32:47;;;;;;;2.25;1.63;;;22.20;62.10;;;;;;6295940;28;20028;-63
2023/09/15 07:35:47;;;;;;;5.80;1.80;;;22.20;62.50;;;;;;6295533;28;20056;-63
2023/09/15 07:38:49;;;;;;;4.60;2.25;;;22.20;62.20;;;;;;6293988;28;20040;-63
2023/09/15 07:41:50;;;;;;;3.08;1.98;;;22.20;62.20;;;;;;6295831;28;20151;-63
2023/09/15 07:44:52;;;;;;;2.08;1.42;;;22.20;62.10;;;;;;6294589;28;20427;-63
2023/09/15 07:47:52;;;;;;;2.67;1.70;;;22.20;62.80;;;;;;6295140;28;20502;-63
2023/09/15 07:50:53;;;;;;;4.45;2.15;;;22.20;63.10;;;;;;6295455;28;20104;-63
2023/09/15 07:53:54;;;;;;;2.35;1.60;;;22.20;62.80;;;;;;6293852;28;20013;-63
2023/09/15 07:56:55;;;;;;;2.83;1.52;;;22.20;63.10;;;;;;6295356;28;20021;-63
2023/09/15 07:59:57;;;;;;;2.78;1.45;;;22.20;63.20;;;;;;6293949;28;20071;-67
2023/09/15 08:02:58;;;;;;;2.70;2.00;;;22.20;63.50;;;;;;6300435;28;20047;-63
2023/09/15 08:05:59;;;;;;;2.05;1.35;;;22.20;63.30;;;;;;6299638;28;20021;-63
2023/09/15 08:08:59;;;;;;;1.88;1.35;;;22.20;63.60;;;;;;6294861;28;20032;-63
2023/09/15 08:12:00;;;;;;;2.63;1.55;;;22.20;63.60;;;;;;6294921;28;20021;-63
2023/09/15 08:15:07;;;;;;;1.83;1.50;;;22.20;63.70;;;;;;6289580;28;20505;-63
2023/09/15 08:18:08;;;;;;;3.25;1.77;;;22.20;63.70;;;;;;6294943;28;20029;-63
2023/09/15 08:21:09;;;;;;;2.28;1.55;;;22.20;63.80;;;;;;6296094;28;20075;-64
2023/09/15 08:24:09;;;;;;;2.13;1.70;;;22.20;63.70;;;;;;6295057;28;20487;-63
2023/09/15 08:27:12;;;;;;;2.33;1.60;;;22.20;63.30;;;;;;6291434;28;20477;-63
2023/09/15 08:30:13;;;;;;;2.40;1.50;;;22.20;63.40;;;;;;6294672;28;20029;-66
2023/09/15 08:33:15;;;;;;;3.72;1.30;;;22.20;64.70;;;;;;6292219;28;20036;-67
2023/09/15 08:36:16;;;;;;;2.90;1.70;;;22.20;63.90;;;;;;6300388;28;20028;-66
2023/09/15 08:39:18;;;;;;;3.90;1.60;;;22.20;63.90;;;;;;6291259;28;20079;-66
2023/09/15 08:42:29;;;;;;;2.78;1.85;;;22.20;64.00;;;;;;6293669;28;20021;-68
2023/09/15 08:45:30;;;;;;;1.90;1.50;;;22.20;64.10;;;;;;6291298;28;20407;-68
2023/09/15 08:48:36;;;;;;;3.22;1.30;;;22.20;64.10;;;;;;6276102;28;20060;-66
2023/09/15 08:51:39;;;;;;;3.28;1.60;;;22.20;64.10;;;;;;6295079;28;20093;-66
2023/09/15 08:54:41;;;;;;;2.05;1.52;;;22.20;64.10;;;;;;6293631;28;20039;-66
2023/09/15 08:57:43;;;;;;;2.45;1.40;;;22.20;64.20;;;;;;6291081;28;20063;-66
2023/09/15 09:00:46;;;;;;;2.20;1.30;;;22.20;65.20;;;;;;6296720;28;20104;-66
2023/09/15 09:03:47;;;;;;;5.72;1.55;;;22.20;64.20;;;;;;6295997;28;20017;-66
2023/09/15 09:06:48;;;;;;;2.90;1.73;;;22.20;64.00;;;;;;6276076;28;20024;-65
2023/09/15 09:09:49;;;;;;;2.97;1.60;;;22.10;64.00;;;;;;6297733;28;20099;-66
2023/09/15 09:12:50;;;;;;;1.73;1.23;;;22.10;63.90;;;;;;6295171;28;20426;-67
2023/09/15 09:15:51;;;;;;;2.17;1.50;;;22.10;64.10;;;;;;6295487;28;20028;-66
2023/09/15 09:19:03;;;;;;;1.67;1.20;;;22.10;64.20;;;;;;6295833;28;20028;-66
2023/09/15 09:22:07;;;;;;;1.60;1.25;;;22.10;64.20;;;;;;6295519;28;20017;-64
2023/09/15 09:25:08;;;;;;;2.33;1.33;;;22.20;64.30;;;;;;6298090;28;20017;-68
2023/09/15 09:28:09;;;;;;;1.73;1.30;;;22.10;64.20;;;;;;6298252;28;20102;-68
2023/09/15 09:31:10;;;;;;;2.03;1.42;;;22.10;64.50;;;;;;6302520;28;20024;-69
2023/09/15 09:34:10;;;;;;;1.95;1.30;;;22.10;64.30;;;;;;6272124;28;20020;-69
2023/09/15 09:37:11;;;;;;;2.33;1.35;;;22.10;64.40;;;;;;6300506;28;20690;-69
2023/09/15 09:40:12;;;;;;;2.20;1.33;;;22.10;64.70;;;;;;6290072;28;20596;-68
2023/09/15 09:43:15;;;;;;;5.20;1.55;;;22.10;64.90;;;;;;6298146;28;20020;-68
2023/09/15 09:46:20;;;;;;;2.47;1.48;;;22.10;64.40;;;;;;6297249;28;20370;-69
2023/09/15 09:49:21;;;;;;;2.78;1.85;;;22.10;64.60;;;;;;6297171;28;20016;-68
2023/09/15 09:52:22;;;;;;;3.47;1.88;;;22.10;64.60;;;;;;6288354;28;20122;-69
2023/09/15 09:55:25;;;;;;;2.70;1.25;;;22.10;64.60;;;;;;6296055;28;20060;-69
2023/09/15 09:58:26;;;;;;;1.67;1.33;;;22.10;64.60;;;;;;6299192;28;20028;-69
2023/09/15 10:01:29;;;;;;;3.33;1.55;;;22.10;64.60;;;;;;6294365;28;20063;-69
2023/09/15 10:04:30;;;;;;;2.42;1.70;;;22.10;64.70;;;;;;6293633;28;20025;-69
2023/09/15 10:07:31;;;;;;;2.65;1.70;;;22.10;65.50;;;;;;6294460;28;20027;-68
2023/09/15 10:10:33;;;;;;;2.53;1.63;;;22.10;64.60;;;;;;6293294;28;20068;-69
2023/09/15 10:13:35;;;;;;;1.52;1.30;;;22.10;64.50;;;;;;6299015;28;20025;-69
2023/09/15 10:16:36;;;;;;;2.90;1.65;;;22.10;64.60;;;;;;6295289;28;20059;-69
2023/09/15 10:19:37;;;;;;;2.22;1.67;;;22.10;64.60;;;;;;6294599;28;20508;-69
2023/09/15 10:22:38;;;;;;;2.05;1.38;;;22.10;64.60;;;;;;6293961;28;20020;-69
2023/09/15 10:25:49;;;;;;;1.67;1.30;;;22.10;64.60;;;;;;6294487;28;20017;-69
2023/09/15 10:28:51;;;;;;;2.40;1.60;;;22.10;64.50;;;;;;6284668;28;20032;-68
2023/09/15 10:31:52;;;;;;;2.00;1.48;;;22.10;64.50;;;;;;6269319;28;20024;-69
2023/09/15 10:34:53;;;;;;;3.53;1.75;;;22.10;64.60;;;;;;6294153;28;20062;-69
2023/09/15 10:37:58;;;;;;;1.88;1.38;;;22.10;64.50;;;;;;6275453;28;20132;-68
2023/09/15 10:41:03;;;;;;;3.03;1.80;;;22.10;64.70;;;;;;6278846;28;20140;-69
2023/09/15 10:44:04;;;;;;;2.53;1.42;;;22.10;64.70;;;;;;6286309;28;20098;-68
2023/09/15 10:47:17;;;;;;;3.03;1.67;;;22.10;64.90;;;;;;6287760;28;20406;-69
2023/09/15 10:50:29;;;;;;;2.65;1.65;;;22.10;64.60;;;;;;6288679;28;20503;-69
2023/09/15 10:53:56;;;;;;;1.98;1.48;;;22.10;64.60;;;;;;6286201;28;20376;-69
2023/09/15 10:56:58;;;;;;;2.15;1.50;;;22.10;64.70;;;;;;6271328;28;20128;-69
2023/09/15 11:00:00;;;;;;;2.53;1.50;;;22.10;64.50;;;;;;6298167;28;20162;-69
2023/09/15 11:03:03;;;;;;;1.92;1.50;;;22.10;64.50;;;;;;6281290;28;20024;-68
2023/09/15 11:06:11;;;;;;;2.08;1.50;;;22.10;65.00;;;;;;6296440;28;20027;-68
2023/09/15 11:09:14;;;;;;;2.75;1.88;;;22.10;65.10;;;;;;6293018;28;20029;-68
2023/09/15 11:12:14;;;;;;;2.45;1.52;;;22.10;65.00;;;;;;6290163;28;20140;-68
2023/09/15 11:15:16;;;;;;;1.70;1.40;;;22.10;65.00;;;;;;6295630;28;20032;-69
2023/09/15 11:18:17;;;;;;;2.50;1.42;;;22.10;65.00;;;;;;6292178;28;20044;-69
2023/09/15 11:21:18;;;;;;;4.90;1.48;;;22.10;65.00;;;;;;6294447;28;20110;-68
2023/09/15 11:24:20;;;;;;;3.00;1.65;;;22.10;64.90;;;;;;6287335;28;20052;-69
2023/09/15 11:27:21;;;;;;;1.85;1.42;;;22.10;64.70;;;;;;6275990;28;20036;-68
2023/09/15 11:30:28;;;;;;;2.72;1.88;;;22.10;64.70;;;;;;6293337;28;20082;-68
2023/09/15 11:33:29;;;;;;;3.85;1.70;;;22.10;64.90;;;;;;6292091;28;20031;-68
2023/09/15 11:36:35;;;;;;;3.13;1.95;;;22.10;64.90;;;;;;6281011;28;20129;-68
2023/09/15 11:39:36;;;;;;;3.33;2.00;;;22.10;65.00;;;;;;6289821;28;20036;-68
2023/09/15 11:42:39;;;;;;;2.22;1.42;;;22.10;65.00;;;;;;6286285;28;20562;-66
2023/09/15 11:45:41;;;;;;;3.40;1.90;;;22.10;64.90;;;;;;6291813;28;20083;-66
2023/09/15 11:48:47;;;;;;;4.05;2.00;;;22.20;64.90;;;;;;6292227;28;20028;-66
2023/09/15 11:51:49;;;;;;;5.75;2.47;;;22.20;64.90;;;;;;6291460;28;20020;-66
2023/09/15 11:54:50;;;;;;;400.83;187.15;;;22.10;64.70;;;;;;6291434;28;20434;-66
2023/09/15 11:57:52;;;;;;;661.00;379.95;;;22.20;64.80;;;;;;6292002;28;20106;-66
2023/09/15 12:00:53;;;;;;;719.08;432.63;;;22.20;64.80;;;;;;6289936;28;20495;-66
2023/09/15 12:03:54;;;;;;;642.05;395.30;;;22.20;64.90;;;;;;6291881;28;20036;-66
2023/09/15 12:06:55;;;;;;;580.60;344.83;;;22.20;65.00;;;;;;6288652;28;20413;-67
2023/09/15 12:09:56;;;;;;;554.67;331.58;;;22.20;65.00;;;;;;6288853;28;20033;-66
2023/09/15 12:12:58;;;;;;;506.50;295.98;;;22.20;65.00;;;;;;6290924;28;20017;-66
2023/09/15 12:15:59;;;;;;;503.35;286.90;;;22.20;65.00;;;;;;6290045;28;20135;-66
2023/09/15 12:19:00;;;;;;;439.63;249.55;;;22.20;65.10;;;;;;6290232;28;20043;-66
2023/09/15 12:22:02;;;;;;;410.95;237.15;;;22.20;65.00;;;;;;6290877;28;20048;-68
2023/09/15 12:25:03;;;;;;;388.70;232.85;;;22.20;65.00;;;;;;6292134;28;20079;-68
2023/09/15 12:28:05;;;;;;;338.52;192.85;;;22.20;65.10;;;;;;6291524;28;20048;-68
2023/09/15 12:31:06;;;;;;;375.92;214.65;;;22.20;64.80;;;;;;6293825;28;20123;-67
2023/09/15 12:34:07;;;;;;;350.85;202.35;;;22.20;65.10;;;;;;6296665;28;20063;-67
2023/09/15 12:37:09;;;;;;;325.85;196.40;;;22.30;65.10;;;;;;6297284;28;20482;-67
2023/09/15 12:40:12;;;;;;;323.25;186.63;;;22.20;65.10;;;;;;6296154;28;20029;-67
2023/09/15 12:43:13;;;;;;;346.10;200.40;;;22.30;65.30;;;;;;6297763;28;20025;-67
2023/09/15 12:46:14;;;;;;;299.83;175.50;;;22.30;65.00;;;;;;6298651;28;20517;-68
2023/09/15 12:49:15;;;;;;;285.20;170.77;;;22.30;64.80;;;;;;6296647;28;20143;-67
2023/09/15 12:52:16;;;;;;;270.27;163.85;;;22.30;64.80;;;;;;6297709;28;20071;-67
2023/09/15 12:55:18;;;;;;;287.35;164.30;;;22.30;64.80;;;;;;6294765;28;20394;-68
2023/09/15 12:58:19;;;;;;;293.98;162.93;;;22.30;64.80;;;;;;6295941;28;20092;-68
2023/09/15 13:01:19;;;;;;;271.58;160.40;;;22.30;64.90;;;;;;6295142;28;20027;-67
2023/09/15 13:04:20;;;;;;;261.10;159.98;;;22.30;64.90;;;;;;6295867;28;20500;-68
2023/09/15 13:07:21;;;;;;;262.33;159.63;;;22.30;65.00;;;;;;6294238;28;20032;-67
2023/09/15 13:10:21;;;;;;;255.95;157.40;;;22.30;65.00;;;;;;6295854;28;20487;-67
2023/09/15 13:13:23;;;;;;;258.92;158.43;;;22.30;65.10;;;;;;6295699;28;20398;-67
2023/09/15 13:16:24;;;;;;;253.90;155.32;;;22.30;65.10;;;;;;6297383;28;20028;-67
2023/09/15 13:19:25;;;;;;;251.55;154.93;;;22.30;65.10;;;;;;6295414;28;20108;-67
2023/09/15 13:22:25;;;;;;;254.88;156.48;;;22.20;65.00;;;;;;6296883;28;20017;-67
2023/09/15 13:25:26;;;;;;;245.40;154.80;;;22.20;65.10;;;;;;6295565;28;20025;-68
2023/09/15 13:28:27;;;;;;;251.73;152.95;;;22.20;65.10;;;;;;6297211;28;20024;-68
2023/09/15 13:31:28;;;;;;;262.45;154.98;;;22.20;65.10;;;;;;6293207;28;20511;-67
2023/09/15 13:34:28;;;;;;;241.68;151.70;;;22.20;65.10;;;;;;6295199;28;20037;-68
2023/09/15 13:37:29;;;;;;;251.75;153.45;;;22.20;65.10;;;;;;6296390;28;20045;-68
2023/09/15 13:40:29;;;;;;;250.90;153.57;;;22.20;65.10;;;;;;6295078;28;20562;-68
2023/09/15 13:43:30;;;;;;;241.88;152.55;;;22.20;65.10;;;;;;6292872;28;20021;-67
2023/09/15 13:46:35;;;;;;;250.82;155.65;;;22.20;65.10;;;;;;6296907;28;20550;-67
2023/09/15 13:49:38;;;;;;;;;;;22.20;65.10;;;;;;6294712;28;20044;-68
2023/09/15 13:52:39;;;;;;;238.98;153.65;;;22.20;65.10;;;;;;6295192;28;19904;-68
2023/09/15 13:55:40;;;;;;;237.85;150.55;;;22.20;65.20;;;;;;6292516;28;20056;-68
2023/09/15 13:58:40;;;;;;;238.38;153.77;;;22.20;65.20;;;;;;6296427;28;20025;-68
2023/09/15 14:01:41;;;;;;;239.27;150.43;;;22.20;65.20;;;;;;6298204;28;20679;-67
2023/09/15 14:04:42;;;;;;;226.27;149.43;;;22.20;65.20;;;;;;6296223;28;20029;-68
2023/09/15 14:07:43;;;;;;;224.82;148.00;;;22.20;65.20;;;;;;6294213;28;20036;-68
2023/09/15 14:10:44;;;;;;;230.55;147.65;;;22.20;65.30;;;;;;6294553;28;20020;-68
2023/09/15 14:13:45;;;;;;;226.57;148.60;;;22.20;65.40;;;;;;6294050;28;20450;-67
2023/09/15 14:16:45;;;;;;;221.20;144.95;;;22.20;65.30;;;;;;6296404;28;20027;-68
2023/09/15 14:19:47;;;;;;;229.68;146.98;;;22.20;65.30;;;;;;6295126;28;20562;-68
2023/09/15 14:22:48;;;;;;;215.50;145.73;;;22.20;65.30;;;;;;6292557;28;20107;-68
2023/09/15 14:25:49;;;;;;;221.93;142.27;;;22.20;65.40;;;;;;6294844;28;20020;-67
2023/09/15 14:28:50;;;;;;;218.98;143.98;;;22.20;65.40;;;;;;6297260;28;20029;-67
2023/09/15 14:31:50;;;;;;;210.35;139.80;;;22.20;65.40;;;;;;6293267;28;20032;-68
2023/09/15 14:34:51;;;;;;;217.55;142.02;;;22.20;65.40;;;;;;6297913;28;20028;-67
2023/09/15 14:37:52;;;;;;;199.23;137.32;;;22.20;65.50;;;;;;6292512;28;20044;-68
2023/09/15 14:40:53;;;;;;;208.25;139.52;;;22.20;65.50;;;;;;6295250;28;20088;-67
2023/09/15 14:43:55;;;;;;;203.85;134.82;;;22.10;65.40;;;;;;6296216;28;20551;-67
2023/09/15 14:46:55;;;;;;;208.02;134.80;;;22.20;65.50;;;;;;6290988;28;20021;-67
2023/09/15 14:49:56;;;;;;;205.30;139.48;;;22.20;65.50;;;;;;6293243;28;20021;-67
2023/09/15 14:52:59;;;;;;;199.23;134.93;;;22.10;65.40;;;;;;6287780;28;20090;-68
2023/09/15 14:56:00;;;;;;;209.10;134.95;;;22.20;65.50;;;;;;6293929;28;20033;-68
2023/09/15 14:59:01;;;;;;;195.25;134.15;;;22.20;65.50;;;;;;6293482;28;20021;-68
2023/09/15 15:02:02;;;;;;;195.57;134.13;;;22.20;65.50;;;;;;6291546;28;20559;-68
2023/09/15 15:05:03;;;;;;;195.95;130.57;;;22.20;65.50;;;;;;6293124;28;20051;-68
2023/09/15 15:08:04;;;;;;;199.10;136.00;;;22.10;65.40;;;;;;6291508;28;20025;-68
2023/09/15 15:11:05;;;;;;;191.77;131.73;;;22.10;65.40;;;;;;6292613;28;20042;-68
2023/09/15 15:14:05;;;;;;;180.48;131.05;;;22.10;65.40;;;;;;6291511;28;20052;-68
2023/09/15 15:17:06;;;;;;;178.75;126.68;;;22.10;65.40;;;;;;6291360;28;20111;-68
2023/09/15 15:20:07;;;;;;;187.00;128.55;;;22.10;65.40;;;;;;6291024;28;20513;-68
2023/09/15 15:23:08;;;;;;;181.38;126.63;;;22.10;65.40;;;;;;6290603;28;20402;-64
2023/09/15 15:26:09;;;;;;;177.95;125.82;;;22.10;65.40;;;;;;6292115;28;20044;-65
2023/09/15 15:29:10;;;;;;;191.57;129.18;;;22.10;65.40;;;;;;6293385;28;20024;-65
2023/09/15 15:32:10;;;;;;;178.32;125.57;;;22.10;65.50;;;;;;6287765;28;20086;-65
2023/09/15 15:35:13;;;;;;;176.80;126.90;;;22.10;65.40;;;;;;6289699;28;20487;-65